Time;durP1;ratioP1;P1;durP2;ratioP2;P2;SDS_P1;SDS_P2;PMS_P1;PMS_P2;Temp;Humidity;BMP_temperature;BMP_pressure;BME280_temperature;BME280_humidity;BME280_pressure;Samples;Min_cycle;Max_cycle;Signal;HPM_P1;HPM_P2
2021/06/22 00:01:00;;;;;;;1.30;0.77;;;;;;;13.66;100.00;92654.78;2097736;28;20404;-86
2021/06/22 00:02:01;;;;;;;0.88;0.80;;;;;;;13.69;100.00;92648.50;2075329;28;20052;-86
2021/06/22 00:03:02;;;;;;;1.67;1.00;;;;;;;13.66;100.00;92644.03;2085228;28;20124;-85
2021/06/22 00:04:03;;;;;;;0.90;0.75;;;;;;;13.69;100.00;92635.81;2082949;28;20061;-85
2021/06/22 00:05:05;;;;;;;0.65;0.65;;;;;;;13.73;100.00;92633.72;2089387;28;20028;-86
2021/06/22 00:06:07;;;;;;;1.42;0.60;;;;;;;13.67;100.00;92637.47;2110897;28;20052;-85
2021/06/22 00:07:08;;;;;;;2.17;0.70;;;;;;;13.68;100.00;92633.59;2100547;28;20024;-86
2021/06/22 00:08:09;;;;;;;0.70;0.70;;;;;;;13.66;100.00;92633.28;2104844;28;20028;-86
2021/06/22 00:09:10;;;;;;;1.13;0.90;;;;;;;13.62;100.00;92630.75;2098986;28;20109;-88
2021/06/22 00:10:11;;;;;;;2.05;1.00;;;;;;;13.64;100.00;92635.66;2097958;28;20071;-86
2021/06/22 00:11:12;;;;;;;2.45;1.02;;;;;;;13.63;100.00;92636.88;2098010;28;20040;-86
2021/06/22 00:12:12;;;;;;;1.83;0.90;;;;;;;13.59;100.00;92634.31;2100973;28;20401;-85
2021/06/22 00:13:13;;;;;;;2.22;1.02;;;;;;;13.67;100.00;92626.72;2097986;28;20028;-86
2021/06/22 00:14:14;;;;;;;0.80;0.73;;;;;;;13.67;100.00;92638.22;2103446;28;20114;-86
2021/06/22 00:15:19;;;;;;;1.20;0.65;;;;;;;13.68;100.00;92631.63;2101294;28;20020;-87
2021/06/22 00:16:19;;;;;;;1.90;0.77;;;;;;;13.68;100.00;92630.91;2123593;27;20122;-85
2021/06/22 00:17:20;;;;;;;1.25;0.80;;;;;;;13.67;100.00;92624.78;2118621;27;20051;-86
2021/06/22 00:18:21;;;;;;;1.25;0.88;;;;;;;13.65;100.00;92629.09;2106194;28;20444;-87
2021/06/22 00:19:21;;;;;;;1.15;0.88;;;;;;;13.58;100.00;92630.16;2106360;28;20028;-86
2021/06/22 00:20:23;;;;;;;0.55;0.52;;;;;;;13.60;100.00;92620.44;2110582;28;20035;-86
2021/06/22 00:21:23;;;;;;;0.93;0.93;;;;;;;13.58;100.00;92628.22;2114675;28;20023;-87
2021/06/22 00:22:24;;;;;;;0.73;0.60;;;;;;;13.58;100.00;92617.47;2105353;28;20027;-87
2021/06/22 00:23:25;;;;;;;1.45;0.80;;;;;;;13.57;100.00;92632.09;2097861;28;20078;-86
2021/06/22 00:24:26;;;;;;;1.10;1.00;;;;;;;13.59;100.00;92624.31;2115325;27;20019;-87
2021/06/22 00:25:27;;;;;;;2.70;1.00;;;;;;;13.44;100.00;92628.78;2117522;27;20016;-86
2021/06/22 00:26:27;;;;;;;1.48;0.70;;;;;;;13.46;100.00;92633.72;2114562;28;20562;-86
2021/06/22 00:27:28;;;;;;;2.67;0.90;;;;;;;13.44;100.00;92628.78;2114156;28;20050;-85
2021/06/22 00:28:29;;;;;;;0.98;0.90;;;;;;;13.48;100.00;92632.09;2089590;28;20039;-85
2021/06/22 00:29:29;;;;;;;1.48;0.80;;;;;;;13.48;100.00;92632.09;2101746;28;20028;-86
2021/06/22 00:30:30;;;;;;;1.35;0.80;;;;;;;13.48;100.00;92642.06;2106275;28;20492;-86
2021/06/22 00:31:31;;;;;;;2.30;1.02;;;;;;;13.45;100.00;92626.84;2118309;27;20026;-86
2021/06/22 00:32:32;;;;;;;3.10;0.90;;;;;;;13.51;100.00;92625.81;2105875;28;20067;-87
2021/06/22 00:33:32;;;;;;;1.52;0.90;;;;;;;13.50;100.00;92626.25;2102041;28;20052;-86
2021/06/22 00:34:33;;;;;;;4.28;1.10;;;;;;;13.50;100.00;92621.63;2113675;28;20274;-86
2021/06/22 00:35:34;;;;;;;1.65;0.85;;;;;;;13.52;100.00;92624.63;2106811;28;20031;-85
2021/06/22 00:36:34;;;;;;;1.67;0.90;;;;;;;13.50;100.00;92624.31;2109924;28;20039;-85
2021/06/22 00:37:35;;;;;;;2.65;0.73;;;;;;;13.50;100.00;92623.56;2097534;28;20051;-86
2021/06/22 00:38:36;;;;;;;1.05;0.65;;;;;;;13.48;100.00;92617.91;2106035;28;20027;-86
2021/06/22 00:39:37;;;;;;;0.98;0.90;;;;;;;13.46;100.00;92626.41;2118649;27;20092;-87
2021/06/22 00:40:37;;;;;;;2.08;0.90;;;;;;;13.51;100.00;92617.75;2109026;28;20515;-87
2021/06/22 00:41:38;;;;;;;1.35;0.90;;;;;;;13.54;100.00;92618.81;2097602;28;20107;-85
2021/06/22 00:42:43;;;;;;;0.95;0.73;;;;;;;13.51;100.00;92620.44;2105972;28;20028;-86
2021/06/22 00:43:44;;;;;;;0.88;0.82;;;;;;;13.48;100.00;92617.91;2100112;28;20074;-85
2021/06/22 00:44:51;;;;;;;1.42;0.90;;;;;;;13.47;100.00;92627.13;2105793;28;20077;-86
2021/06/22 00:45:51;;;;;;;3.80;1.00;;;;;;;13.47;100.00;92617.16;2109923;27;20042;-86
2021/06/22 00:46:52;;;;;;;1.05;0.90;;;;;;;13.39;100.00;92624.00;2105718;28;20024;-86
2021/06/22 00:47:53;;;;;;;0.93;0.70;;;;;;;13.50;100.00;92624.31;2106556;28;20050;-86
2021/06/22 00:48:54;;;;;;;1.17;0.70;;;;;;;13.41;100.00;92627.00;2121852;27;20440;-86
2021/06/22 00:49:56;;;;;;;0.82;0.80;;;;;;;13.43;100.00;92626.53;2098235;28;20063;-86
2021/06/22 00:51:44;;;;;;;0.85;0.80;;;;;;;13.41;100.00;92623.56;2105393;28;20020;-85
2021/06/22 00:52:45;;;;;;;1.00;0.90;;;;;;;13.40;100.00;92628.19;2106141;28;20019;-85
2021/06/22 00:53:46;;;;;;;1.33;0.73;;;;;;;13.44;100.00;92631.47;2089307;28;20021;-85
2021/06/22 00:54:47;;;;;;;1.63;0.93;;;;;;;13.45;100.00;92627.59;2097762;28;20054;-85
2021/06/22 00:55:47;;;;;;;2.65;0.80;;;;;;;13.43;100.00;92632.66;2114663;28;20028;-87
2021/06/22 00:56:48;;;;;;;2.42;0.90;;;;;;;13.43;100.00;92638.00;2114635;28;20400;-86
2021/06/22 00:57:49;;;;;;;1.20;1.00;;;;;;;13.40;100.00;92638.19;2104373;28;20051;-86
2021/06/22 00:58:53;;;;;;;2.22;1.10;;;;;;;13.42;100.00;92638.47;2107417;28;20397;-86
2021/06/22 00:59:54;;;;;;;1.83;1.00;;;;;;;13.46;100.00;92645.19;2114087;28;20101;-85
2021/06/22 01:00:55;;;;;;;1.10;0.80;;;;;;;13.49;100.00;92652.38;2114661;28;20468;-85
2021/06/22 01:01:55;;;;;;;1.20;1.00;;;;;;;13.49;100.00;92657.72;2105072;28;20114;-85
2021/06/22 01:02:58;;;;;;;1.80;0.60;;;;;;;13.52;100.00;92666.81;2110195;28;20110;-85
2021/06/22 01:03:58;;;;;;;0.80;0.75;;;;;;;13.58;100.00;92665.81;2106080;28;20031;-85
2021/06/22 01:04:59;;;;;;;1.30;0.90;;;;;;;13.58;100.00;92671.16;2101383;28;20034;-85
2021/06/22 01:06:01;;;;;;;2.42;1.00;;;;;;;13.53;100.00;92685.19;2110045;28;20508;-85
2021/06/22 01:07:02;;;;;;;3.03;0.70;;;;;;;13.42;100.00;92687.53;2108449;28;20251;-85
2021/06/22 01:08:03;;;;;;;0.98;0.80;;;;;;;13.39;100.00;92687.69;2097731;28;20024;-85
2021/06/22 01:09:06;;;;;;;0.70;0.70;;;;;;;13.39;100.00;92688.44;2100963;28;20120;-86
2021/06/22 01:10:07;;;;;;;0.98;0.82;;;;;;;13.34;100.00;92676.34;2098079;28;20085;-85
2021/06/22 01:11:08;;;;;;;1.45;0.63;;;;;;;13.38;100.00;92684.25;2119864;27;20042;-87
2021/06/22 01:12:09;;;;;;;0.90;0.90;;;;;;;13.40;100.00;92684.56;2108703;28;20110;-86
2021/06/22 01:13:10;;;;;;;1.00;0.90;;;;;;;13.41;100.00;92690.69;2089393;28;20079;-85
2021/06/22 01:14:11;;;;;;;2.15;0.60;;;;;;;13.40;100.00;92681.13;2098532;28;20021;-84
2021/06/22 01:15:14;;;;;;;0.80;0.60;;;;;;;13.39;100.00;92683.06;2109695;28;20039;-85
2021/06/22 01:16:26;;;;;;;2.50;0.77;;;;;;;13.42;100.00;92678.75;2105873;28;20032;-85
2021/06/22 01:17:28;;;;;;;2.13;0.68;;;;;;;13.44;100.00;92671.00;2111328;27;20547;-87
2021/06/22 01:18:28;;;;;;;0.85;0.70;;;;;;;13.37;100.00;92663.97;2101444;28;20020;-85
2021/06/22 01:19:31;;;;;;;3.28;0.90;;;;;;;13.42;100.00;92665.31;2089111;28;20487;-86
2021/06/22 01:20:33;;;;;;;3.95;0.90;;;;;;;13.42;100.00;92663.38;2097443;28;20509;-85
2021/06/22 01:21:34;;;;;;;1.17;0.70;;;;;;;13.40;100.00;92663.09;2089376;28;20040;-85
2021/06/22 01:22:36;;;;;;;0.65;0.60;;;;;;;13.37;100.00;92665.91;2089207;28;20020;-85
2021/06/22 01:23:37;;;;;;;1.35;0.75;;;;;;;13.34;100.00;92659.47;2105907;28;20115;-84
2021/06/22 01:24:38;;;;;;;1.42;0.73;;;;;;;13.33;100.00;92664.09;2113852;28;20019;-85
2021/06/22 01:25:39;;;;;;;1.08;0.63;;;;;;;13.27;100.00;92659.78;2097320;28;20153;-84
2021/06/22 01:26:46;;;;;;;2.60;0.80;;;;;;;13.35;100.00;92667.09;2111160;28;20027;-85
2021/06/22 01:27:47;;;;;;;0.82;0.60;;;;;;;13.27;100.00;92657.09;2094751;28;20020;-85
2021/06/22 01:28:48;;;;;;;3.20;0.88;;;;;;;13.32;100.00;92665.28;2105442;28;20024;-86
2021/06/22 01:29:50;;;;;;;1.92;0.68;;;;;;;13.34;100.00;92652.19;2114104;28;20027;-86
2021/06/22 01:30:51;;;;;;;0.63;0.57;;;;;;;13.21;100.00;92656.13;2122929;27;20353;-86
2021/06/22 01:31:53;;;;;;;0.68;0.60;;;;;;;13.28;100.00;92658.56;2122166;27;20064;-87
2021/06/22 01:32:54;;;;;;;1.40;0.70;;;;;;;13.29;100.00;92663.50;2105867;28;20027;-85
2021/06/22 01:33:55;;;;;;;1.85;0.52;;;;;;;13.21;100.00;92658.81;2097343;28;20429;-85
2021/06/22 01:34:56;;;;;;;0.85;0.50;;;;;;;13.16;100.00;92662.09;2110774;28;20107;-85
2021/06/22 01:35:57;;;;;;;0.45;0.45;;;;;;;13.16;100.00;92660.16;2122652;27;20022;-86
2021/06/22 01:36:59;;;;;;;0.60;0.60;;;;;;;13.25;100.00;92660.19;2118363;27;20051;-86
2021/06/22 01:38:01;;;;;;;1.02;0.40;;;;;;;13.21;100.00;92661.50;2118405;27;20156;-86
2021/06/22 01:39:11;;;;;;;0.40;0.40;;;;;;;13.28;100.00;92670.06;2099713;28;20073;-86
2021/06/22 01:40:12;;;;;;;0.88;0.50;;;;;;;13.35;100.00;92653.69;2094470;28;20120;-86
2021/06/22 01:41:13;;;;;;;0.45;0.40;;;;;;;13.37;100.00;92655.16;2102406;28;20043;-85
2021/06/22 01:42:13;;;;;;;0.40;0.40;;;;;;;13.23;100.00;92656.47;2109840;28;20047;-88
2021/06/22 01:43:14;;;;;;;1.23;0.60;;;;;;;13.25;100.00;92654.84;2100609;28;20024;-86
2021/06/22 01:44:15;;;;;;;0.47;0.40;;;;;;;13.31;100.00;92647.72;2101044;28;20032;-86
2021/06/22 01:45:17;;;;;;;2.30;0.40;;;;;;;13.34;100.00;92657.56;2097186;28;20115;-86
2021/06/22 01:46:19;;;;;;;2.22;0.60;;;;;;;13.26;100.00;92647.56;2109848;28;20019;-86
2021/06/22 01:47:19;;;;;;;0.50;0.47;;;;;;;13.22;100.00;92646.91;2118400;27;20030;-87
2021/06/22 01:48:20;;;;;;;0.98;0.50;;;;;;;13.23;100.00;92651.13;2105575;28;20102;-85
2021/06/22 01:49:21;;;;;;;2.33;0.50;;;;;;;13.20;100.00;92643.91;2105443;28;20564;-85
2021/06/22 01:50:22;;;;;;;3.15;0.70;;;;;;;13.17;100.00;92650.16;2097285;28;20039;-85
2021/06/22 01:51:22;;;;;;;0.50;0.50;;;;;;;13.07;100.00;92652.06;2118425;27;20080;-85
2021/06/22 01:52:23;;;;;;;0.98;0.30;;;;;;;13.11;100.00;92640.00;2109823;28;20475;-85
2021/06/22 01:53:25;;;;;;;1.05;0.40;;;;;;;13.06;100.00;92637.91;2105280;28;20031;-85
2021/06/22 01:54:25;;;;;;;0.50;0.40;;;;;;;13.19;100.00;92635.13;2101315;28;20023;-86
2021/06/22 01:55:43;;;;;;;0.38;0.30;;;;;;;13.14;100.00;92633.03;2105619;28;20016;-85
2021/06/22 01:56:49;;;;;;;1.63;0.47;;;;;;;12.98;100.00;92634.00;2116195;28;20019;-86
2021/06/22 01:57:50;;;;;;;0.95;0.50;;;;;;;13.02;100.00;92631.19;2110401;28;20035;-85
2021/06/22 01:58:51;;;;;;;0.60;0.32;;;;;;;13.09;100.00;92626.31;2113878;28;20031;-87
2021/06/22 01:59:52;;;;;;;0.70;0.40;;;;;;;13.08;100.00;92624.81;2113651;28;20039;-86
2021/06/22 02:00:56;;;;;;;0.40;0.40;;;;;;;12.99;100.00;92627.44;2113970;28;20019;-85
2021/06/22 02:01:57;;;;;;;0.60;0.40;;;;;;;13.01;100.00;92630.44;2114008;28;20027;-86
2021/06/22 02:02:57;;;;;;;0.50;0.50;;;;;;;13.04;100.00;92628.81;2105511;28;20492;-85
2021/06/22 02:05:53;;;;;;;;;;;;;;;13.04;100.00;92623.47;2148494;27;20580;-83
2021/06/22 02:06:54;;;;;;;0.52;0.40;;;;;;;13.04;100.00;92621.53;2131060;27;19911;-84
2021/06/22 02:07:54;;;;;;;0.35;0.35;;;;;;;13.04;100.00;92618.84;2121524;28;20023;-82
2021/06/22 02:08:55;;;;;;;1.48;0.32;;;;;;;13.05;100.00;92616.91;2117067;28;20507;-82
2021/06/22 02:09:55;;;;;;;0.40;0.40;;;;;;;13.02;100.00;92621.19;2120486;28;20030;-83
2021/06/22 02:10:56;;;;;;;3.00;0.45;;;;;;;13.05;100.00;92614.97;2113822;28;20020;-83
2021/06/22 02:11:57;;;;;;;1.52;0.57;;;;;;;13.05;100.00;92616.91;2121518;27;20039;-82
2021/06/22 02:12:58;;;;;;;0.40;0.40;;;;;;;13.02;100.00;92623.88;2129679;27;20059;-82
2021/06/22 02:13:59;;;;;;;0.90;0.55;;;;;;;13.05;100.00;92623.00;2120070;28;20032;-82
2021/06/22 02:15:00;;;;;;;1.55;0.50;;;;;;;13.05;100.00;92614.97;2112581;28;20024;-82
2021/06/22 02:16:00;;;;;;;0.68;0.40;;;;;;;13.03;100.00;92611.97;2108602;27;20031;-83
2021/06/22 02:17:02;;;;;;;2.80;0.70;;;;;;;13.04;100.00;92618.84;2119786;28;20035;-83
2021/06/22 02:18:03;;;;;;;1.05;0.50;;;;;;;13.03;100.00;92613.91;2108784;28;20027;-83
2021/06/22 02:19:04;;;;;;;0.68;0.40;;;;;;;12.98;100.00;92611.81;2114711;27;20094;-82
2021/06/22 02:20:06;;;;;;;0.50;0.50;;;;;;;13.04;100.00;92616.16;2119228;28;20118;-82
2021/06/22 02:21:07;;;;;;;0.95;0.60;;;;;;;13.04;100.00;92615.41;2123943;27;20047;-83
2021/06/22 02:22:08;;;;;;;1.83;0.57;;;;;;;13.02;100.00;92607.78;2121285;28;20035;-83
2021/06/22 02:23:09;;;;;;;1.65;0.60;;;;;;;13.04;100.00;92605.44;2121394;28;20019;-82
2021/06/22 02:24:10;;;;;;;0.95;0.63;;;;;;;13.05;100.00;92604.22;2126651;27;20789;-82
2021/06/22 02:25:12;;;;;;;1.13;0.50;;;;;;;13.10;100.00;92603.63;2124209;27;20035;-82
2021/06/22 02:26:12;;;;;;;1.45;0.55;;;;;;;13.05;100.00;92608.84;2121322;27;20027;-84
2021/06/22 02:27:28;;;;;;;1.50;0.50;;;;;;;13.09;100.00;92604.09;2138458;27;20095;-82
2021/06/22 02:28:29;;;;;;;1.15;0.50;;;;;;;13.10;100.00;92598.28;2117263;27;20510;-81
2021/06/22 02:29:29;;;;;;;0.55;0.40;;;;;;;13.08;100.00;92589.16;2115654;28;20052;-82
2021/06/22 02:30:31;;;;;;;0.65;0.50;;;;;;;13.02;100.00;92594.38;2115703;27;20026;-81
2021/06/22 02:31:32;;;;;;;0.43;0.40;;;;;;;13.04;100.00;92591.25;2115381;28;20019;-84
2021/06/22 02:32:32;;;;;;;0.52;0.45;;;;;;;12.98;100.00;92584.97;2110172;28;20109;-81
2021/06/22 02:33:33;;;;;;;0.30;0.30;;;;;;;13.05;100.00;92587.38;2106597;28;20034;-81
2021/06/22 02:34:34;;;;;;;0.40;0.40;;;;;;;13.08;100.00;92587.25;2125091;27;20034;-81
2021/06/22 02:35:35;;;;;;;5.13;0.70;;;;;;;13.11;100.00;92589.03;2123484;27;20015;-82
2021/06/22 02:36:36;;;;;;;0.55;0.40;;;;;;;13.09;100.00;92588.72;2115965;28;20024;-82
2021/06/22 02:37:38;;;;;;;1.10;0.40;;;;;;;13.11;100.00;92593.66;2125678;27;20022;-84
2021/06/22 02:38:39;;;;;;;0.93;0.40;;;;;;;13.09;100.00;92596.03;2123042;27;20023;-83
2021/06/22 02:39:39;;;;;;;0.40;0.40;;;;;;;13.03;100.00;92595.84;2125424;27;20054;-82
2021/06/22 02:40:40;;;;;;;0.55;0.43;;;;;;;13.01;100.00;92589.47;2128235;27;20092;-83
2021/06/22 02:41:41;;;;;;;0.63;0.47;;;;;;;13.06;100.00;92586.94;2114196;28;20023;-83
2021/06/22 02:42:41;;;;;;;1.08;0.65;;;;;;;13.06;100.00;92586.94;2112708;28;20039;-82
2021/06/22 02:43:42;;;;;;;0.50;0.50;;;;;;;13.02;100.00;92589.00;2112698;28;20126;-82
2021/06/22 02:44:43;;;;;;;1.98;0.50;;;;;;;13.09;100.00;92583.38;2118859;28;20022;-81
2021/06/22 02:45:44;;;;;;;1.17;0.55;;;;;;;13.11;100.00;92580.22;2122002;27;20066;-82
2021/06/22 02:46:44;;;;;;;0.38;0.38;;;;;;;13.08;100.00;92584.56;2128042;27;20479;-82
2021/06/22 02:47:45;;;;;;;0.65;0.50;;;;;;;13.03;100.00;92581.69;2122013;27;20027;-82
2021/06/22 02:48:46;;;;;;;3.42;0.65;;;;;;;13.11;100.00;92580.97;2120204;27;20016;-82
2021/06/22 02:49:47;;;;;;;0.85;0.40;;;;;;;13.08;100.00;92581.13;2121131;28;20540;-82
2021/06/22 02:50:48;;;;;;;0.75;0.45;;;;;;;13.02;100.00;92585.59;2113067;28;20111;-81
2021/06/22 02:51:48;;;;;;;1.55;0.50;;;;;;;13.05;100.00;92584.69;2125330;27;20428;-81
2021/06/22 02:52:49;;;;;;;0.38;0.35;;;;;;;13.08;100.00;92581.13;2112570;28;20419;-82
2021/06/22 02:53:50;;;;;;;1.35;0.40;;;;;;;13.07;100.00;92577.69;2120856;28;20051;-82
2021/06/22 02:54:50;;;;;;;0.60;0.50;;;;;;;13.11;100.00;92578.28;2121047;28;20027;-81
2021/06/22 02:55:51;;;;;;;1.05;0.57;;;;;;;13.09;100.00;92575.31;2112686;28;20123;-83
2021/06/22 02:56:53;;;;;;;0.45;0.43;;;;;;;13.07;100.00;92569.63;2112522;28;20491;-83
2021/06/22 02:57:55;;;;;;;1.13;0.47;;;;;;;13.08;100.00;92571.16;2121190;27;20463;-81
2021/06/22 02:58:56;;;;;;;0.98;0.45;;;;;;;13.10;100.00;92563.38;2120500;28;20387;-81
2021/06/22 02:59:57;;;;;;;0.45;0.45;;;;;;;13.08;100.00;92562.34;2113399;28;20118;-81
2021/06/22 03:00:58;;;;;;;0.52;0.45;;;;;;;13.09;100.00;92559.22;2112237;28;20031;-83
2021/06/22 03:01:58;;;;;;;0.40;0.40;;;;;;;13.10;100.00;92568.00;2096840;28;20108;-82
2021/06/22 03:02:59;;;;;;;0.65;0.47;;;;;;;13.02;100.00;92570.22;2111372;28;20548;-83
2021/06/22 03:04:00;;;;;;;1.98;0.47;;;;;;;13.06;100.00;92567.41;2115068;27;20031;-82
2021/06/22 03:05:01;;;;;;;1.15;0.60;;;;;;;13.02;100.00;92572.16;2110765;28;20050;-81
2021/06/22 03:06:01;;;;;;;0.88;0.47;;;;;;;13.00;100.00;92575.31;2114118;27;20023;-83
2021/06/22 03:07:03;;;;;;;1.42;0.45;;;;;;;13.06;100.00;92572.78;2117230;28;20027;-83
2021/06/22 03:08:04;;;;;;;0.45;0.40;;;;;;;12.96;100.00;92569.34;2110808;28;20039;-81
2021/06/22 03:09:08;;;;;;;1.00;0.60;;;;;;;13.01;100.00;92573.38;2095717;28;20028;-82
2021/06/22 03:10:11;;;;;;;0.80;0.50;;;;;;;12.98;100.00;92566.94;2101279;27;20482;-83
2021/06/22 03:11:12;;;;;;;0.70;0.50;;;;;;;12.97;100.00;92565.44;2118461;28;20028;-81
2021/06/22 03:12:13;;;;;;;2.05;0.52;;;;;;;12.94;100.00;92566.34;2114060;28;20038;-81
2021/06/22 03:13:13;;;;;;;0.85;0.60;;;;;;;12.89;100.00;92566.91;2115289;28;20023;-81
2021/06/22 03:14:14;;;;;;;1.58;0.43;;;;;;;12.89;100.00;92564.25;2108970;28;20028;-82
2021/06/22 03:15:16;;;;;;;2.55;0.47;;;;;;;12.93;100.00;92564.84;2124206;27;20019;-82
2021/06/22 03:16:17;;;;;;;0.70;0.50;;;;;;;12.90;100.00;92567.66;2125662;27;20102;-81
2021/06/22 03:17:18;;;;;;;0.77;0.52;;;;;;;12.84;100.00;92565.56;2106746;28;20077;-82
2021/06/22 03:18:18;;;;;;;0.75;0.60;;;;;;;12.84;100.00;92562.13;2081975;28;20484;-81
2021/06/22 03:19:19;;;;;;;0.82;0.43;;;;;;;12.77;100.00;92573.13;2102409;28;20107;-82
2021/06/22 03:20:20;;;;;;;1.13;0.52;;;;;;;12.83;100.00;92569.44;2106581;28;20411;-83
2021/06/22 03:21:21;;;;;;;1.23;0.63;;;;;;;12.79;100.00;92566.16;2110797;28;20024;-82
2021/06/22 03:22:22;;;;;;;0.82;0.70;;;;;;;12.79;100.00;92570.78;2098533;28;20023;-82
2021/06/22 03:23:22;;;;;;;1.08;0.70;;;;;;;12.80;100.00;92569.56;2110765;28;20818;-81
2021/06/22 03:24:23;;;;;;;0.98;0.50;;;;;;;12.83;100.00;92571.38;2119547;27;20072;-83
2021/06/22 03:25:24;;;;;;;1.48;0.60;;;;;;;12.78;100.00;92564.66;2118716;27;20034;-84
2021/06/22 03:26:24;;;;;;;0.60;0.55;;;;;;;12.74;100.00;92566.75;2098282;28;20024;-82
2021/06/22 03:27:25;;;;;;;1.13;0.55;;;;;;;12.73;100.00;92564.47;2090530;28;20025;-81
2021/06/22 03:28:26;;;;;;;0.50;0.40;;;;;;;12.77;100.00;92562.41;2106724;28;20020;-83
2021/06/22 03:29:27;;;;;;;2.53;0.50;;;;;;;12.76;100.00;92558.97;2101767;28;20032;-85
2021/06/22 03:30:27;;;;;;;3.22;0.70;;;;;;;12.80;100.00;92550.81;2098268;28;20128;-81
2021/06/22 03:31:28;;;;;;;1.17;0.70;;;;;;;12.83;100.00;92563.34;2108583;28;20053;-82
2021/06/22 03:32:29;;;;;;;0.50;0.50;;;;;;;12.87;100.00;92560.53;2101487;28;20051;-82
2021/06/22 03:33:29;;;;;;;0.60;0.50;;;;;;;12.89;100.00;92566.91;2090059;28;20025;-82
2021/06/22 03:34:30;;;;;;;0.50;0.50;;;;;;;12.88;100.00;92565.44;2093751;28;20028;-81
2021/06/22 03:35:31;;;;;;;0.93;0.88;;;;;;;12.96;100.00;92569.34;2095408;28;20384;-80
2021/06/22 03:36:32;;;;;;;1.40;1.30;;;;;;;12.93;100.00;92575.56;2105767;28;20047;-82
2021/06/22 03:37:33;;;;;;;2.28;1.02;;;;;;;12.93;100.00;92574.84;2106695;28;20484;-82
2021/06/22 03:38:33;;;;;;;1.50;0.70;;;;;;;12.90;100.00;92573.78;2098313;28;20024;-81
2021/06/22 03:39:35;;;;;;;0.95;0.50;;;;;;;12.89;100.00;92577.66;2104304;28;20895;-81
2021/06/22 03:40:35;;;;;;;0.60;0.60;;;;;;;12.90;100.00;92570.34;2108884;28;20028;-82
2021/06/22 03:41:37;;;;;;;2.38;0.60;;;;;;;12.93;100.00;92564.84;2110743;28;20376;-81
2021/06/22 03:42:37;;;;;;;1.60;0.65;;;;;;;12.88;100.00;92565.44;2100408;28;20029;-82
2021/06/22 03:43:38;;;;;;;1.50;0.47;;;;;;;12.88;100.00;92570.06;2106630;28;20020;-81
2021/06/22 03:44:39;;;;;;;1.58;0.60;;;;;;;12.97;100.00;92564.72;2103088;28;20039;-82
2021/06/22 03:45:40;;;;;;;3.15;0.60;;;;;;;12.98;100.00;92571.56;2098035;28;20044;-82
2021/06/22 03:46:44;;;;;;;2.28;0.70;;;;;;;12.90;100.00;92567.66;2098323;28;20024;-83
2021/06/22 03:47:45;;;;;;;1.33;0.70;;;;;;;12.88;100.00;92573.47;2113927;28;20535;-82
2021/06/22 03:48:46;;;;;;;1.00;0.70;;;;;;;12.93;100.00;92572.88;2114765;28;20031;-81
2021/06/22 03:49:47;;;;;;;0.98;0.63;;;;;;;12.87;100.00;92580.03;2106639;28;20032;-82
2021/06/22 03:50:47;;;;;;;0.60;0.50;;;;;;;12.89;100.00;92577.66;2115039;28;20062;-81
2021/06/22 03:51:50;;;;;;;1.35;0.68;;;;;;;12.96;100.00;92579.31;2115040;28;20019;-81
2021/06/22 03:52:50;;;;;;;1.63;0.55;;;;;;;12.88;100.00;92583.47;2090383;28;20029;-81
2021/06/22 03:53:51;;;;;;;0.60;0.60;;;;;;;12.93;100.00;92588.25;2106377;28;20561;-82
2021/06/22 03:54:52;;;;;;;0.50;0.50;;;;;;;12.89;100.00;92587.63;2114914;27;20024;-83
2021/06/22 03:55:53;;;;;;;1.45;0.60;;;;;;;12.84;100.00;92589.72;2114844;28;20020;-82
2021/06/22 03:56:54;;;;;;;2.80;0.60;;;;;;;12.85;100.00;92583.16;2106868;28;20034;-82
2021/06/22 03:58:05;;;;;;;1.77;0.70;;;;;;;12.84;100.00;92580.91;2114446;28;20050;-81
2021/06/22 03:59:06;;;;;;;0.93;0.80;;;;;;;12.88;100.00;92575.41;2101556;28;20036;-81
2021/06/22 04:00:07;;;;;;;0.50;0.43;;;;;;;12.94;100.00;92581.69;2098123;28;20024;-81
2021/06/22 04:01:08;;;;;;;0.40;0.40;;;;;;;12.93;100.00;92575.56;2097998;28;20074;-82
2021/06/22 04:02:08;;;;;;;0.60;0.60;;;;;;;12.93;100.00;92577.50;2098169;28;20020;-82
2021/06/22 04:03:13;;;;;;;0.95;0.60;;;;;;;12.94;100.00;92573.63;2099861;28;20035;-81
2021/06/22 04:04:14;;;;;;;1.10;0.60;;;;;;;12.93;100.00;92572.88;2106347;28;20426;-82
2021/06/22 04:05:15;;;;;;;1.30;0.70;;;;;;;12.93;100.00;92570.22;2089330;28;20095;-82
2021/06/22 04:06:16;;;;;;;0.80;0.60;;;;;;;12.92;100.00;92571.41;2096331;28;20388;-81
2021/06/22 04:07:17;;;;;;;0.70;0.68;;;;;;;12.92;100.00;92568.72;2102811;28;20028;-82
2021/06/22 04:08:17;;;;;;;0.60;0.60;;;;;;;12.91;100.00;92577.22;2106358;28;20028;-82
2021/06/22 04:09:25;;;;;;;2.30;0.80;;;;;;;12.92;100.00;92571.41;2102746;28;20021;-82
2021/06/22 04:10:26;;;;;;;0.70;0.70;;;;;;;12.94;100.00;92565.59;2108250;27;20023;-83
2021/06/22 04:11:28;;;;;;;0.60;0.60;;;;;;;12.95;100.00;92557.13;2109951;28;20066;-81
2021/06/22 04:12:28;;;;;;;1.95;0.77;;;;;;;12.94;100.00;92552.91;2103180;28;20357;-81
2021/06/22 04:13:29;;;;;;;0.65;0.55;;;;;;;12.96;100.00;92555.91;2106297;28;20077;-83
2021/06/22 04:14:30;;;;;;;0.70;0.70;;;;;;;12.97;100.00;92556.66;2113514;28;20770;-84
2021/06/22 04:15:31;;;;;;;1.75;0.90;;;;;;;12.95;100.00;92562.47;2097854;28;20028;-81
2021/06/22 04:16:32;;;;;;;0.70;0.70;;;;;;;12.89;100.00;92553.50;2106313;28;20055;-82
2021/06/22 04:17:33;;;;;;;1.58;0.80;;;;;;;12.92;100.00;92554.56;2106391;28;20028;-82
2021/06/22 04:18:34;;;;;;;1.45;0.63;;;;;;;12.91;100.00;92566.50;2114655;28;20027;-82
2021/06/22 04:19:34;;;;;;;0.80;0.70;;;;;;;12.91;100.00;92567.25;2112226;28;20483;-82
2021/06/22 04:20:37;;;;;;;1.45;0.75;;;;;;;12.91;100.00;92569.91;2091856;28;20032;-82
2021/06/22 04:21:38;;;;;;;2.10;0.70;;;;;;;12.92;100.00;92565.28;2104579;27;20027;-83
2021/06/22 04:22:39;;;;;;;2.78;0.80;;;;;;;12.86;100.00;92557.06;2099649;28;20058;-81
2021/06/22 04:23:40;;;;;;;1.15;0.68;;;;;;;12.92;100.00;92568.72;2096093;28;20032;-83
2021/06/22 04:24:41;;;;;;;0.75;0.70;;;;;;;12.91;100.00;92563.81;2091169;28;20021;-80
2021/06/22 04:25:41;;;;;;;1.33;0.55;;;;;;;12.96;100.00;92563.97;2104465;28;20114;-81
2021/06/22 04:26:42;;;;;;;3.17;0.63;;;;;;;12.96;100.00;92569.34;2095108;28;20044;-81
2021/06/22 04:27:43;;;;;;;0.80;0.70;;;;;;;12.95;100.00;92570.53;2097952;28;20062;-81
2021/06/22 04:28:44;;;;;;;0.88;0.70;;;;;;;13.03;100.00;92574.41;2113760;28;20020;-82
2021/06/22 04:29:45;;;;;;;1.70;0.80;;;;;;;13.07;100.00;92569.63;2120540;27;20092;-83
2021/06/22 04:30:45;;;;;;;0.73;0.73;;;;;;;12.98;100.00;92566.94;2107349;28;20020;-82
2021/06/22 04:31:46;;;;;;;0.60;0.60;;;;;;;13.06;100.00;92570.09;2106334;28;20058;-82
2021/06/22 04:32:47;;;;;;;0.60;0.60;;;;;;;13.06;100.00;92576.19;2104273;28;20097;-81
2021/06/22 04:33:48;;;;;;;0.90;0.63;;;;;;;13.09;100.00;92566.53;2098643;28;20381;-82
2021/06/22 04:34:48;;;;;;;0.50;0.50;;;;;;;13.15;100.00;92572.03;2097622;28;20540;-82
2021/06/22 04:35:49;;;;;;;0.77;0.70;;;;;;;13.14;100.00;92563.25;2115185;27;20090;-82
2021/06/22 04:36:50;;;;;;;2.25;0.93;;;;;;;13.19;100.00;92565.34;2114852;27;20085;-80
2021/06/22 04:37:51;;;;;;;2.03;1.05;;;;;;;13.22;100.00;92566.41;2113701;28;20054;-82
2021/06/22 04:38:52;;;;;;;1.05;0.90;;;;;;;13.25;100.00;92554.78;2106395;28;20482;-80
2021/06/22 04:39:53;;;;;;;3.30;0.70;;;;;;;13.28;100.00;92551.97;2114505;27;20027;-80
2021/06/22 04:40:53;;;;;;;0.90;0.80;;;;;;;13.28;100.00;92554.63;2105972;28;20047;-80
2021/06/22 04:41:54;;;;;;;1.98;1.17;;;;;;;13.28;100.00;92551.97;2114645;28;20064;-81
2021/06/22 04:42:55;;;;;;;0.75;0.75;;;;;;;13.34;100.00;92552.09;2105951;28;20177;-81
2021/06/22 04:43:56;;;;;;;1.17;0.73;;;;;;;13.37;100.00;92553.16;2090051;28;20053;-81
2021/06/22 04:44:56;;;;;;;0.82;0.70;;;;;;;13.46;100.00;92561.22;2105564;28;20028;-82
2021/06/22 04:45:57;;;;;;;0.52;0.52;;;;;;;13.41;100.00;92569.88;2106019;28;20116;-82
2021/06/22 04:46:57;;;;;;;0.75;0.65;;;;;;;13.46;100.00;92571.94;2090521;28;20024;-81
2021/06/22 04:47:59;;;;;;;0.60;0.60;;;;;;;13.49;100.00;92565.69;2096877;28;20024;-81